createdAt,value
2022-11-19T00:01:33.916Z,3.85
2022-11-19T00:04:02.595Z,3.30
2022-11-19T00:06:31.706Z,2.83
2022-11-19T00:08:59.079Z,3.17
2022-11-19T00:11:47.456Z,2.55
2022-11-19T00:14:16.297Z,2.17
2022-11-19T00:16:47.699Z,1.90
2022-11-19T00:21:42.680Z,1.80
2022-11-19T00:24:11.297Z,1.63
2022-11-19T00:26:38.952Z,1.70
2022-11-19T00:29:06.009Z,1.60
2022-11-19T00:31:33.488Z,1.50
2022-11-19T00:34:01.337Z,1.20
2022-11-19T00:36:28.764Z,1.20
2022-11-19T00:38:56.594Z,1.42
2022-11-19T00:41:23.863Z,1.30
2022-11-19T00:43:51.134Z,1.42
2022-11-19T00:46:23.999Z,1.40
2022-11-19T00:48:52.986Z,2.10
2022-11-19T00:51:22.207Z,2.22
2022-11-19T00:53:49.533Z,2.10
2022-11-19T00:56:20.986Z,2.30
2022-11-19T00:58:48.536Z,2.00
2022-11-19T01:01:18.115Z,1.90
2022-11-19T01:03:46.220Z,2.08
2022-11-19T01:06:18.646Z,2.58
2022-11-19T01:08:48.019Z,2.38
2022-11-19T01:11:18.340Z,1.88
2022-11-19T01:13:47.703Z,2.00
2022-11-19T01:16:21.430Z,2.38
2022-11-19T01:18:51.448Z,2.00
2022-11-19T01:21:23.089Z,3.30
2022-11-19T01:23:51.062Z,2.13
2022-11-19T01:26:19.381Z,2.58
2022-11-19T01:28:47.119Z,6.82
2022-11-19T01:31:16.884Z,3.00
2022-11-19T01:33:45.202Z,2.00
2022-11-19T01:36:23.585Z,2.00
2022-11-19T01:38:55.301Z,1.83
2022-11-19T01:41:28.289Z,1.80
2022-11-19T01:44:01.620Z,1.98
2022-11-19T01:46:32.935Z,2.58
2022-11-19T01:49:10.894Z,2.13
2022-11-19T01:51:43.912Z,1.92
2022-11-19T01:54:18.918Z,1.58
2022-11-19T01:56:47.012Z,1.80
2022-11-19T01:59:19.471Z,1.63
2022-11-19T02:01:50.933Z,1.50
2022-11-19T02:04:20.933Z,1.73
2022-11-19T02:06:48.505Z,1.60
2022-11-19T02:09:16.144Z,1.40
2022-11-19T02:12:07.898Z,1.40
2022-11-19T02:14:42.393Z,1.50
2022-11-19T02:17:27.668Z,1.42
2022-11-19T02:20:27.318Z,1.20
2022-11-19T02:23:32.415Z,1.20
2022-11-19T02:26:39.009Z,1.60
2022-11-19T02:29:30.354Z,1.20
2022-11-19T02:32:02.092Z,1.35
2022-11-19T02:35:02.405Z,2.00
2022-11-19T02:37:51.261Z,1.83
2022-11-19T02:40:28.524Z,1.98
2022-11-19T02:43:20.003Z,2.80
2022-11-19T02:48:34.986Z,3.97
2022-11-19T02:51:05.037Z,3.72
2022-11-19T02:53:33.538Z,4.43
2022-11-19T02:56:13.259Z,4.43
2022-11-19T02:59:11.646Z,3.97
2022-11-19T03:02:02.926Z,4.18
2022-11-19T03:07:04.587Z,4.78
2022-11-19T03:09:33.785Z,4.50
2022-11-19T03:12:21.421Z,6.63
2022-11-19T03:15:16.108Z,5.38
2022-11-19T03:18:11.136Z,5.40
2022-11-19T03:20:46.597Z,6.00
2022-11-19T03:23:30.399Z,7.50
2022-11-19T03:26:04.156Z,6.70
2022-11-19T03:28:38.549Z,6.85
2022-11-19T03:31:07.465Z,6.95
2022-11-19T03:33:43.518Z,6.75
2022-11-19T03:36:24.269Z,6.63
2022-11-19T03:38:56.291Z,7.20
2022-11-19T03:41:25.734Z,6.63
2022-11-19T03:43:58.799Z,6.72
2022-11-19T03:46:29.180Z,7.25
2022-11-19T03:48:58.973Z,7.88
2022-11-19T03:51:48.326Z,7.68
2022-11-19T03:54:15.802Z,6.72
2022-11-19T03:56:45.565Z,6.22
2022-11-19T03:59:13.589Z,6.70
2022-11-19T04:01:41.573Z,6.38
2022-11-19T04:04:27.442Z,6.05
2022-11-19T04:06:56.915Z,6.32
2022-11-19T04:09:24.729Z,6.65
2022-11-19T04:14:17.853Z,6.35
2022-11-19T04:16:45.159Z,6.80
2022-11-19T04:19:15.349Z,6.20
2022-11-19T04:21:42.623Z,6.40
2022-11-19T04:24:10.720Z,6.93
2022-11-19T04:26:37.852Z,6.90
2022-11-19T04:29:08.228Z,8.18
2022-11-19T04:31:36.590Z,8.82
2022-11-19T04:34:05.166Z,6.63
2022-11-19T04:36:32.540Z,6.65
2022-11-19T04:39:01.281Z,7.78
2022-11-19T04:41:29.320Z,7.30
2022-11-19T04:43:56.499Z,6.85
2022-11-19T04:46:23.767Z,7.60
2022-11-19T04:48:51.737Z,7.25
2022-11-19T04:51:19.079Z,7.97
2022-11-19T04:53:46.337Z,8.35
2022-11-19T04:56:13.480Z,8.48
2022-11-19T04:58:43.884Z,7.97
2022-11-19T05:01:13.013Z,7.95
2022-11-19T05:03:41.649Z,8.30
2022-11-19T05:06:09.553Z,7.53
2022-11-19T05:08:38.138Z,8.52
2022-11-19T05:11:06.079Z,7.82
2022-11-19T05:13:34.377Z,8.82
2022-11-19T05:16:02.749Z,8.10
2022-11-19T05:18:30.605Z,8.52
2022-11-19T05:20:58.518Z,7.60
2022-11-19T05:23:28.801Z,7.25
2022-11-19T05:26:00.941Z,7.13
2022-11-19T05:28:39.190Z,7.18
2022-11-19T05:31:08.714Z,6.93
2022-11-19T05:33:36.798Z,6.95
2022-11-19T05:36:05.269Z,7.55
2022-11-19T05:38:33.236Z,7.40
2022-11-19T05:41:00.265Z,7.32
2022-11-19T05:43:28.495Z,7.75
2022-11-19T05:46:04.614Z,6.65
2022-11-19T05:48:31.986Z,6.75
2022-11-19T05:50:59.755Z,5.85
2022-11-19T05:53:27.350Z,5.88
2022-11-19T05:55:55.105Z,5.63
2022-11-19T05:58:25.431Z,6.95
2022-11-19T06:00:57.233Z,6.05
2022-11-19T06:03:24.623Z,6.53
2022-11-19T06:05:55.317Z,6.18
2022-11-19T06:08:23.515Z,6.35
2022-11-19T06:10:51.461Z,7.20
2022-11-19T06:13:19.883Z,6.78
2022-11-19T06:15:47.664Z,7.47
2022-11-19T06:18:15.413Z,7.13
2022-11-19T06:20:43.129Z,9.02
2022-11-19T06:23:10.445Z,10.77
2022-11-19T06:25:38.582Z,11.43
2022-11-19T06:28:09.105Z,8.55
2022-11-19T06:30:36.928Z,7.33
2022-11-19T06:33:06.981Z,6.13
2022-11-19T06:35:35.254Z,6.68
2022-11-19T06:38:03.193Z,6.50
2022-11-19T06:40:30.552Z,6.40
2022-11-19T06:42:58.469Z,6.50
2022-11-19T06:45:26.235Z,6.60
2022-11-19T06:47:53.981Z,5.90
2022-11-19T06:50:22.159Z,5.82
2022-11-19T06:52:49.811Z,6.45
2022-11-19T06:55:18.146Z,5.70
2022-11-19T06:57:45.408Z,5.55
2022-11-19T07:00:14.572Z,6.90
2022-11-19T07:02:42.102Z,6.05
2022-11-19T07:05:19.076Z,5.38
2022-11-19T07:07:46.362Z,5.80
2022-11-19T07:10:14.190Z,6.22
2022-11-19T07:12:44.149Z,6.05
2022-11-19T07:15:12.199Z,4.90
2022-11-19T07:17:40.753Z,5.30
2022-11-19T07:20:08.962Z,6.05
2022-11-19T07:22:36.799Z,5.07
2022-11-19T07:25:04.385Z,5.10
2022-11-19T07:27:32.376Z,4.65
2022-11-19T07:29:59.548Z,4.57
2022-11-19T07:32:27.374Z,4.68
2022-11-19T07:34:55.013Z,5.30
2022-11-19T07:37:22.499Z,4.43
2022-11-19T07:39:53.933Z,5.00
2022-11-19T07:45:10.360Z,5.53
2022-11-19T07:47:38.372Z,5.53
2022-11-19T07:50:06.214Z,5.45
2022-11-19T07:52:33.948Z,5.97
2022-11-19T07:55:05.011Z,6.72
2022-11-19T07:57:34.809Z,5.97
2022-11-19T08:00:03.226Z,4.90
2022-11-19T08:02:40.088Z,4.15
2022-11-19T08:05:08.089Z,4.45
2022-11-19T08:07:38.321Z,3.70
2022-11-19T08:10:07.346Z,3.25
2022-11-19T08:12:35.491Z,3.83
2022-11-19T08:15:05.664Z,3.67
2022-11-19T08:17:51.927Z,4.32
2022-11-19T08:20:19.841Z,3.70
2022-11-19T08:22:47.417Z,4.00
2022-11-19T08:25:15.016Z,3.75
2022-11-19T08:27:42.161Z,3.70
2022-11-19T08:30:10.147Z,2.92
2022-11-19T08:32:37.896Z,3.45
2022-11-19T08:35:06.462Z,2.55
2022-11-19T08:37:33.814Z,2.65
2022-11-19T08:40:06.838Z,2.97
2022-11-19T08:42:55.299Z,3.00
2022-11-19T08:45:25.156Z,2.63
2022-11-19T08:47:53.191Z,3.05
2022-11-19T08:50:21.352Z,2.47
2022-11-19T08:53:00.494Z,3.20
2022-11-19T08:55:33.163Z,2.55
2022-11-19T08:58:08.089Z,2.38
2022-11-19T09:00:37.935Z,2.63
2022-11-19T09:03:05.447Z,4.25
2022-11-19T09:05:33.198Z,4.03
2022-11-19T09:08:00.313Z,3.00
2022-11-19T09:10:28.249Z,3.30
2022-11-19T09:12:55.923Z,2.60
2022-11-19T09:15:26.842Z,2.50
2022-11-19T09:17:56.772Z,2.80
2022-11-19T09:20:23.945Z,2.50
2022-11-19T09:22:52.097Z,2.40
2022-11-19T09:25:19.379Z,2.60
2022-11-19T09:27:49.434Z,2.60
2022-11-19T09:30:17.319Z,2.25
2022-11-19T09:32:45.424Z,2.55
2022-11-19T09:35:15.633Z,2.00
2022-11-19T09:37:43.551Z,2.28
2022-11-19T09:40:21.899Z,2.45
2022-11-19T09:43:15.892Z,2.95
2022-11-19T09:45:43.132Z,2.08
2022-11-19T09:48:10.171Z,2.33
2022-11-19T09:51:04.362Z,2.00
2022-11-19T09:53:44.350Z,2.40
2022-11-19T09:56:18.693Z,2.35
2022-11-19T09:58:46.630Z,2.00
2022-11-19T10:01:22.917Z,2.30
2022-11-19T10:03:53.950Z,2.05
2022-11-19T10:07:11.452Z,2.70
2022-11-19T10:10:12.347Z,2.03
2022-11-19T10:13:11.879Z,2.20
2022-11-19T10:16:18.665Z,1.70
2022-11-19T10:19:28.540Z,1.88
2022-11-19T10:22:30.140Z,1.67
2022-11-19T10:25:26.114Z,1.70
2022-11-19T10:28:04.289Z,1.92
2022-11-19T10:30:32.219Z,1.60
2022-11-19T10:33:12.446Z,1.70
2022-11-19T10:35:48.568Z,1.77
2022-11-19T10:38:37.944Z,1.80
2022-11-19T10:42:07.831Z,1.50
2022-11-19T10:44:53.054Z,2.30
2022-11-19T10:47:59.052Z,3.25
2022-11-19T10:50:27.273Z,2.10
2022-11-19T10:53:07.482Z,2.10
2022-11-19T10:55:57.715Z,1.92
2022-11-19T10:58:35.555Z,2.08
2022-11-19T11:01:05.997Z,1.70
2022-11-19T11:03:49.708Z,2.27
2022-11-19T11:06:17.228Z,1.70
2022-11-19T11:08:54.070Z,1.58
2022-11-19T11:11:58.340Z,1.60
2022-11-19T11:14:47.616Z,1.75
2022-11-19T11:17:25.480Z,1.63
2022-11-19T11:20:03.892Z,1.98
2022-11-19T11:22:32.277Z,1.70
2022-11-19T11:25:07.210Z,1.73
2022-11-19T11:27:36.077Z,1.60
2022-11-19T11:30:13.157Z,1.50
2022-11-19T11:32:42.239Z,2.58
2022-11-19T11:35:29.504Z,1.52
2022-11-19T11:37:57.455Z,1.33
2022-11-19T11:40:26.195Z,1.50
2022-11-19T11:42:54.535Z,1.58
2022-11-19T11:45:35.092Z,1.70
2022-11-19T11:48:09.309Z,5.90
2022-11-19T11:50:37.457Z,5.57
2022-11-19T11:53:15.293Z,2.38
2022-11-19T11:55:42.545Z,2.65
2022-11-19T11:58:34.952Z,2.03
2022-11-19T12:01:16.068Z,3.88
2022-11-19T12:04:01.185Z,3.75
2022-11-19T12:06:48.259Z,4.47
2022-11-19T12:09:21.558Z,4.22
2022-11-19T12:11:58.796Z,1.92
2022-11-19T12:14:50.962Z,2.40
2022-11-19T12:17:21.491Z,2.97
2022-11-19T12:20:03.919Z,1.98
2022-11-19T12:22:57.996Z,2.10
2022-11-19T12:25:47.903Z,2.90
2022-11-19T12:28:21.287Z,2.65
2022-11-19T12:31:11.672Z,3.58
2022-11-19T12:33:58.251Z,2.55
2022-11-19T12:36:45.337Z,2.50
2022-11-19T12:39:40.764Z,2.03
2022-11-19T12:42:14.321Z,2.67
2022-11-19T12:44:59.898Z,3.20
2022-11-19T12:47:27.081Z,4.68
2022-11-19T12:50:23.686Z,4.55
2022-11-19T12:53:23.264Z,6.63
2022-11-19T12:56:03.826Z,3.88
2022-11-19T12:58:39.544Z,4.18
2022-11-19T13:01:17.578Z,9.00
2022-11-19T13:03:59.962Z,5.18
2022-11-19T13:06:37.170Z,4.68
2022-11-19T13:09:13.564Z,9.55
2022-11-19T13:11:49.694Z,3.47
2022-11-19T13:14:30.609Z,3.78
2022-11-19T13:17:00.581Z,2.60
2022-11-19T13:19:37.008Z,3.10
2022-11-19T13:22:12.751Z,2.97
2022-11-19T13:25:04.021Z,3.58
2022-11-19T13:30:07.030Z,5.63
2022-11-19T13:33:03.300Z,4.53
2022-11-19T13:36:09.391Z,6.78
2022-11-19T13:39:12.726Z,4.78
2022-11-19T13:42:14.032Z,4.18
2022-11-19T13:44:41.933Z,3.83
2022-11-19T13:47:42.363Z,2.80
2022-11-19T13:50:18.863Z,2.50
2022-11-19T13:53:04.186Z,3.78
2022-11-19T13:55:35.662Z,3.78
2022-11-19T13:58:16.389Z,3.45
2022-11-19T14:01:08.075Z,3.42
2022-11-19T14:03:44.279Z,4.72
2022-11-19T14:06:32.180Z,7.03
2022-11-19T14:09:38.320Z,10.07
2022-11-19T14:12:12.209Z,9.02
2022-11-19T14:14:58.283Z,15.40
2022-11-19T14:17:46.538Z,12.57
2022-11-19T14:20:52.629Z,8.50
2022-11-19T14:23:56.884Z,7.57
2022-11-19T14:26:53.751Z,12.55
2022-11-19T14:29:27.046Z,9.13
2022-11-19T14:32:00.910Z,8.73
2022-11-19T14:34:31.422Z,10.48
2022-11-19T14:37:03.396Z,9.75
2022-11-19T14:39:40.238Z,9.40
2022-11-19T14:42:20.419Z,9.57
2022-11-19T14:45:06.029Z,10.07
2022-11-19T14:47:39.259Z,10.00
2022-11-19T14:50:27.852Z,8.82
2022-11-19T14:52:58.422Z,12.68
2022-11-19T14:55:31.651Z,9.80
2022-11-19T14:58:05.582Z,11.75
2022-11-19T15:00:39.262Z,16.63
2022-11-19T15:03:15.948Z,9.18
2022-11-19T15:05:45.024Z,6.28
2022-11-19T15:08:18.642Z,5.82
2022-11-19T15:11:03.213Z,6.35
2022-11-19T15:13:36.199Z,7.38
2022-11-19T15:16:10.779Z,6.95
2022-11-19T15:18:41.028Z,6.93
2022-11-19T15:21:45.548Z,7.30
2022-11-19T15:24:24.583Z,6.95
2022-11-19T15:27:07.595Z,8.48
2022-11-19T15:29:53.035Z,7.25
2022-11-19T15:32:45.175Z,6.80
2022-11-19T15:35:18.471Z,6.65
2022-11-19T15:37:59.707Z,8.30
2022-11-19T15:40:30.299Z,52.83
2022-11-19T15:43:08.913Z,22.73
2022-11-19T15:45:52.484Z,14.15
2022-11-19T15:48:37.839Z,13.05
2022-11-19T15:51:07.981Z,7.68
2022-11-19T15:53:35.929Z,8.52
2022-11-19T15:56:07.826Z,8.18
2022-11-19T15:58:47.322Z,11.32
2022-11-19T16:01:17.470Z,8.10
2022-11-19T16:03:45.530Z,13.07
2022-11-19T16:06:25.714Z,44.35
2022-11-19T16:09:05.033Z,29.48
2022-11-19T16:11:56.234Z,21.02
2022-11-19T16:14:48.227Z,15.75
2022-11-19T16:17:32.948Z,21.77
2022-11-19T16:20:11.253Z,15.77
2022-11-19T16:22:43.573Z,10.65
2022-11-19T16:25:24.889Z,10.80
2022-11-19T16:27:57.210Z,9.90
2022-11-19T16:30:30.209Z,13.15
2022-11-19T16:33:01.522Z,9.90
2022-11-19T16:35:34.204Z,12.10
2022-11-19T16:38:02.198Z,10.10
2022-11-19T16:40:49.843Z,9.60
2022-11-19T16:43:19.182Z,8.95
2022-11-19T16:45:47.105Z,16.17
2022-11-19T16:48:52.602Z,13.93
2022-11-19T16:51:53.394Z,12.73
2022-11-19T16:54:42.710Z,16.13
2022-11-19T16:57:12.883Z,13.07
2022-11-19T16:59:52.254Z,12.18
2022-11-19T17:02:23.002Z,14.82
2022-11-19T17:04:54.192Z,13.27
2022-11-19T17:07:33.014Z,9.18
2022-11-19T17:10:29.386Z,9.35
2022-11-19T17:13:02.853Z,7.97
2022-11-19T17:15:34.971Z,10.60
2022-11-19T17:18:34.778Z,9.77
2022-11-19T17:21:21.184Z,6.82
2022-11-19T17:23:50.888Z,8.35
2022-11-19T17:26:27.488Z,6.20
2022-11-19T17:29:22.912Z,6.88
2022-11-19T17:31:59.486Z,7.95
2022-11-19T17:34:26.571Z,7.43
2022-11-19T17:36:53.784Z,7.82
2022-11-19T17:39:25.255Z,8.65
2022-11-19T17:42:14.159Z,8.98
2022-11-19T17:44:43.004Z,7.95
2022-11-19T17:47:23.803Z,13.07
2022-11-19T17:49:52.987Z,10.80
2022-11-19T17:52:28.805Z,7.47
2022-11-19T17:54:59.137Z,6.50
2022-11-19T17:57:26.552Z,8.00
2022-11-19T17:59:53.827Z,7.40
2022-11-19T18:02:21.935Z,8.63
2022-11-19T18:04:49.977Z,8.30
2022-11-19T18:07:21.584Z,6.90
2022-11-19T18:09:48.787Z,7.32
2022-11-19T18:12:18.798Z,8.80
2022-11-19T18:14:47.100Z,8.65
2022-11-19T18:17:15.931Z,8.95
2022-11-19T18:19:44.970Z,9.93
2022-11-19T18:22:20.249Z,8.48
2022-11-19T18:24:49.052Z,7.32
2022-11-19T18:27:17.561Z,6.18
2022-11-19T18:29:45.649Z,5.40
2022-11-19T18:32:16.373Z,4.78
2022-11-19T18:34:44.949Z,5.82
2022-11-19T18:37:13.475Z,4.95
2022-11-19T18:39:40.708Z,4.88
2022-11-19T18:42:14.962Z,4.90
2022-11-19T18:44:43.607Z,4.70
2022-11-19T18:47:15.531Z,4.88
2022-11-19T18:49:43.042Z,5.57
2022-11-19T18:52:25.037Z,5.70
2022-11-19T18:54:52.584Z,6.68
2022-11-19T18:57:19.864Z,5.15
2022-11-19T18:59:46.953Z,6.20
2022-11-19T19:02:14.308Z,6.07
2022-11-19T19:04:42.841Z,6.22
2022-11-19T19:07:10.439Z,6.80
2022-11-19T19:09:37.674Z,6.45
2022-11-19T19:12:17.904Z,6.97
2022-11-19T19:14:47.519Z,5.80
2022-11-19T19:17:16.116Z,7.20
2022-11-19T19:19:47.337Z,6.82
2022-11-19T19:22:16.393Z,6.85
2022-11-19T19:24:43.578Z,8.25
2022-11-19T19:27:12.075Z,7.13
2022-11-19T19:29:40.048Z,9.05
2022-11-19T19:32:09.137Z,8.38
2022-11-19T19:34:37.165Z,7.55
2022-11-19T19:37:05.439Z,7.50
2022-11-19T19:39:32.578Z,8.85
2022-11-19T19:42:00.864Z,10.35
2022-11-19T19:44:28.571Z,9.43
2022-11-19T19:46:55.822Z,10.77
2022-11-19T19:49:24.418Z,9.55
2022-11-19T19:51:53.334Z,9.00
2022-11-19T19:54:22.429Z,7.15
2022-11-19T19:56:53.876Z,7.40
2022-11-19T19:59:21.877Z,6.57
2022-11-19T20:01:50.880Z,7.07
2022-11-19T20:04:24.370Z,7.03
2022-11-19T20:06:55.156Z,8.73
2022-11-19T20:09:23.724Z,6.90
2022-11-19T20:11:51.841Z,7.72
2022-11-19T20:14:19.070Z,7.38
2022-11-19T20:16:47.126Z,7.65
2022-11-19T20:19:15.324Z,7.45
2022-11-19T20:21:43.280Z,7.07
2022-11-19T20:24:13.619Z,7.47
2022-11-19T20:26:46.047Z,7.78
2022-11-19T20:29:14.328Z,8.70
2022-11-19T20:31:49.102Z,10.27
2022-11-19T20:34:16.924Z,10.98
2022-11-19T20:36:45.136Z,11.80
2022-11-19T20:39:13.320Z,17.52
2022-11-19T20:41:58.786Z,15.10
2022-11-19T20:44:26.644Z,13.48
2022-11-19T20:47:03.490Z,14.93
2022-11-19T20:49:36.749Z,16.63
2022-11-19T20:52:04.545Z,17.23
2022-11-19T20:54:33.006Z,18.83
2022-11-19T20:57:00.991Z,18.00
2022-11-19T20:59:29.311Z,19.50
2022-11-19T21:01:57.466Z,17.48
2022-11-19T21:04:27.487Z,18.63
2022-11-19T21:06:54.985Z,18.05
2022-11-19T21:09:24.064Z,16.73
2022-11-19T21:11:52.404Z,18.38
2022-11-19T21:14:19.750Z,24.38
2022-11-19T21:16:47.306Z,23.38
2022-11-19T21:19:14.523Z,16.58
2022-11-19T21:21:42.656Z,18.17
2022-11-19T21:24:10.871Z,19.25
2022-11-19T21:26:38.544Z,14.55
2022-11-19T21:29:07.310Z,13.95
2022-11-19T21:31:45.260Z,11.43
2022-11-19T21:34:19.334Z,10.98
2022-11-19T21:36:49.807Z,10.10
2022-11-19T21:39:19.195Z,10.32
2022-11-19T21:41:46.781Z,13.30
2022-11-19T21:44:21.550Z,13.98
2022-11-19T21:46:54.437Z,16.02
2022-11-19T21:49:22.903Z,16.45
2022-11-19T21:51:52.092Z,14.07
2022-11-19T21:54:24.940Z,12.32
2022-11-19T21:56:57.352Z,10.20
2022-11-19T21:59:24.655Z,10.55
2022-11-19T22:01:54.683Z,9.38
2022-11-19T22:04:21.854Z,9.77
2022-11-19T22:06:49.106Z,9.68
2022-11-19T22:09:16.153Z,10.20
2022-11-19T22:11:45.045Z,8.95
2022-11-19T22:14:12.686Z,9.80
2022-11-19T22:16:42.228Z,8.82
2022-11-19T22:19:12.144Z,10.63
2022-11-19T22:21:40.563Z,10.05
2022-11-19T22:24:12.821Z,11.10
2022-11-19T22:26:40.057Z,9.95
2022-11-19T22:29:07.181Z,9.93
2022-11-19T22:31:34.310Z,9.45
2022-11-19T22:34:01.392Z,8.40
2022-11-19T22:36:31.556Z,6.93
2022-11-19T22:38:59.827Z,7.78
2022-11-19T22:41:27.193Z,8.77
2022-11-19T22:43:54.407Z,7.93
2022-11-19T22:46:22.191Z,7.40
2022-11-19T22:48:49.544Z,7.13
2022-11-19T22:51:23.701Z,6.68
2022-11-19T22:53:52.820Z,6.25
2022-11-19T22:56:23.049Z,6.18
2022-11-19T22:58:50.754Z,6.95
2022-11-19T23:01:24.250Z,7.13
2022-11-19T23:03:52.795Z,9.48
2022-11-19T23:06:20.602Z,9.48
2022-11-19T23:08:48.820Z,9.88
2022-11-19T23:11:38.278Z,9.18
2022-11-19T23:14:11.652Z,9.57
2022-11-19T23:16:39.674Z,12.18
2022-11-19T23:19:07.873Z,12.38
2022-11-19T23:21:35.176Z,10.25
2022-11-19T23:24:02.999Z,11.73
2022-11-19T23:26:32.023Z,9.57
2022-11-19T23:28:59.779Z,10.05
2022-11-19T23:31:35.609Z,14.25
2022-11-19T23:34:02.829Z,11.93
2022-11-19T23:36:36.508Z,10.27
2022-11-19T23:39:05.524Z,7.88
2022-11-19T23:41:33.914Z,8.23
2022-11-19T23:44:01.972Z,7.85
2022-11-19T23:46:32.093Z,8.75
2022-11-19T23:49:00.282Z,9.00
2022-11-19T23:51:31.011Z,9.52
2022-11-19T23:53:59.028Z,9.55
2022-11-19T23:56:27.294Z,8.27
2022-11-19T23:58:54.807Z,7.70
